createdAt,value
2019-06-07T00:03:43.532Z,3.40
2019-06-07T00:09:15.330Z,3.50
2019-06-07T00:14:43.879Z,4.27
2019-06-07T00:20:16.779Z,3.70
2019-06-07T00:25:44.797Z,5.10
2019-06-07T00:31:14.958Z,4.47
2019-06-07T00:36:45.071Z,4.17
2019-06-07T00:42:17.500Z,4.70
2019-06-07T00:47:45.385Z,4.70
2019-06-07T00:53:20.015Z,5.10
2019-06-07T00:58:45.811Z,4.97
2019-06-07T01:04:17.795Z,4.50
2019-06-07T01:09:46.092Z,5.20
2019-06-07T01:15:22.152Z,6.50
2019-06-07T01:20:49.376Z,5.83
2019-06-07T01:26:21.618Z,6.37
2019-06-07T01:31:49.945Z,5.70
2019-06-07T01:37:20.150Z,6.27
2019-06-07T01:42:50.237Z,5.13
2019-06-07T01:48:23.146Z,5.73
2019-06-07T01:54:41.431Z,5.00
2019-06-07T01:59:25.087Z,5.90
2019-06-07T02:04:54.707Z,5.70
2019-06-07T02:10:27.712Z,6.03
2019-06-07T02:15:55.123Z,6.80
2019-06-07T02:21:27.782Z,6.43
2019-06-07T02:26:55.879Z,5.83
2019-06-07T02:32:29.781Z,6.53
2019-06-07T02:37:58.013Z,6.30
2019-06-07T02:43:28.393Z,6.20
2019-06-07T02:48:58.301Z,7.30
2019-06-07T02:54:30.900Z,6.97
2019-06-07T03:00:16.758Z,6.63
2019-06-07T03:05:34.201Z,6.37
2019-06-07T03:11:02.571Z,6.70
2019-06-07T03:16:39.151Z,6.47
2019-06-07T03:22:08.471Z,6.33
2019-06-07T03:27:47.319Z,7.20
2019-06-07T03:33:09.199Z,5.60
2019-06-07T03:38:39.858Z,6.93
2019-06-07T03:44:09.391Z,7.40
2019-06-07T03:49:42.180Z,6.07
2019-06-07T03:55:15.020Z,7.17
2019-06-07T04:00:47.616Z,5.97
2019-06-07T04:06:16.883Z,6.07
2019-06-07T04:11:46.222Z,5.47
2019-06-07T04:17:15.513Z,6.63
2019-06-07T04:22:44.786Z,5.60
2019-06-07T04:28:15.050Z,6.17
2019-06-07T04:33:44.365Z,5.70
2019-06-07T04:39:13.644Z,5.87
2019-06-07T04:44:43.531Z,6.30
2019-06-07T04:50:13.115Z,6.80
2019-06-07T04:55:42.703Z,6.80
2019-06-07T05:01:26.953Z,6.37
2019-06-07T05:06:43.128Z,6.70
2019-06-07T05:12:12.564Z,6.87
2019-06-07T05:17:44.997Z,8.30
2019-06-07T05:23:59.482Z,7.47
2019-06-07T05:28:44.834Z,8.80
2019-06-07T05:34:15.070Z,7.97
2019-06-07T05:39:46.371Z,9.03
2019-06-07T05:45:20.087Z,9.03
2019-06-07T05:50:56.583Z,8.40
2019-06-07T05:56:20.585Z,9.07
2019-06-07T06:02:00.243Z,8.87
2019-06-07T06:07:20.905Z,8.83
2019-06-07T06:12:51.991Z,8.00
2019-06-07T06:18:21.229Z,8.97
2019-06-07T06:23:51.959Z,8.90
2019-06-07T06:29:21.503Z,7.80
2019-06-07T06:34:54.045Z,8.77
2019-06-07T06:40:22.862Z,7.87
2019-06-07T06:45:52.161Z,8.40
2019-06-07T06:51:21.492Z,7.80
2019-06-07T06:56:52.791Z,6.17
2019-06-07T07:02:21.899Z,7.00
2019-06-07T07:07:52.899Z,6.87
2019-06-07T07:13:23.308Z,6.87
2019-06-07T07:18:54.529Z,6.97
2019-06-07T07:24:23.668Z,7.00
2019-06-07T07:30:22.773Z,6.33
2019-06-07T07:35:23.963Z,5.57
2019-06-07T07:41:07.463Z,5.93
2019-06-07T07:46:29.642Z,5.80
2019-06-07T07:51:58.954Z,6.20
2019-06-07T07:57:27.800Z,5.67
2019-06-07T08:02:59.632Z,5.57
2019-06-07T08:08:29.558Z,6.50
2019-06-07T08:13:58.997Z,5.73
2019-06-07T08:19:29.277Z,5.80
2019-06-07T08:25:01.849Z,7.00
2019-06-07T08:36:16.973Z,6.67
2019-06-07T08:41:31.788Z,6.37
2019-06-07T08:47:19.323Z,6.20
2019-06-07T08:52:32.224Z,6.00
2019-06-07T08:58:05.754Z,6.50
2019-06-07T09:03:35.678Z,6.57
2019-06-07T09:09:08.353Z,7.00
2019-06-07T09:14:58.903Z,6.30
2019-06-07T09:20:35.101Z,6.87
2019-06-07T09:25:56.793Z,7.10
2019-06-07T09:31:14.037Z,7.20
2019-06-07T09:36:43.486Z,6.13
2019-06-07T09:42:12.959Z,6.97
2019-06-07T09:47:42.208Z,7.10
2019-06-07T09:53:21.729Z,6.37
2019-06-07T09:58:52.535Z,7.33
2019-06-07T10:04:28.482Z,6.40
2019-06-07T10:15:16.205Z,5.83
2019-06-07T10:20:45.470Z,5.30
2019-06-07T10:26:14.749Z,6.13
2019-06-07T10:31:44.019Z,5.33
2019-06-07T10:37:15.666Z,13.00
2019-06-07T10:42:44.334Z,4.50
2019-06-07T10:48:13.679Z,4.50
2019-06-07T10:53:42.972Z,4.80
2019-06-07T10:59:13.585Z,3.60
2019-06-07T11:04:43.008Z,3.43
2019-06-07T11:10:19.083Z,4.20
2019-06-07T11:15:45.025Z,4.00
2019-06-07T11:21:14.473Z,4.30
2019-06-07T11:26:43.715Z,4.40
2019-06-07T11:32:13.031Z,3.53
2019-06-07T11:37:42.328Z,3.80
2019-06-07T11:43:12.748Z,3.77
2019-06-07T11:48:42.235Z,3.80
2019-06-07T11:54:12.058Z,3.87
2019-06-07T11:59:41.464Z,3.20
2019-06-07T12:05:15.287Z,3.20
2019-06-07T12:10:42.931Z,3.63
2019-06-07T12:16:13.286Z,3.80
2019-06-07T12:21:42.564Z,3.90
2019-06-07T12:27:12.743Z,3.70
2019-06-07T12:32:42.153Z,3.50
2019-06-07T12:38:12.283Z,3.87
2019-06-07T12:43:41.815Z,3.90
2019-06-07T12:49:11.120Z,3.00
2019-06-07T12:54:40.392Z,3.60
2019-06-07T13:00:16.103Z,3.13
2019-06-07T13:05:45.514Z,3.37
2019-06-07T13:11:21.256Z,5.97
2019-06-07T13:16:45.797Z,3.80
2019-06-07T13:22:16.176Z,3.70
2019-06-07T13:27:45.512Z,3.80
2019-06-07T13:33:14.775Z,3.20
2019-06-07T13:38:44.092Z,3.43
2019-06-07T13:44:13.373Z,3.23
2019-06-07T13:49:42.720Z,3.73
2019-06-07T13:55:13.565Z,3.93
2019-06-07T14:00:42.849Z,3.20
2019-06-07T14:06:12.123Z,3.40
2019-06-07T14:11:50.447Z,3.10
2019-06-07T14:17:12.426Z,3.60
2019-06-07T14:22:41.731Z,3.10
2019-06-07T14:28:11.967Z,3.47
2019-06-07T14:33:41.373Z,3.27
2019-06-07T14:39:10.658Z,3.00
2019-06-07T14:44:39.926Z,3.03
2019-06-07T14:50:11.804Z,3.00
2019-06-07T14:55:41.088Z,3.17
2019-06-07T15:01:10.396Z,3.10
2019-06-07T15:06:39.696Z,3.43
2019-06-07T15:12:24.165Z,3.20
2019-06-07T15:17:41.771Z,3.30
2019-06-07T15:23:11.042Z,3.00
2019-06-07T15:28:40.320Z,3.23
2019-06-07T15:34:09.595Z,3.70
2019-06-07T15:39:38.882Z,3.27
2019-06-07T15:45:08.944Z,3.80
2019-06-07T15:50:38.407Z,3.53
2019-06-07T15:56:07.742Z,4.60
2019-06-07T16:01:42.440Z,4.30
2019-06-07T16:07:11.700Z,4.10
2019-06-07T16:12:58.590Z,4.07
2019-06-07T16:18:13.757Z,4.00
2019-06-07T16:23:44.115Z,3.57
2019-06-07T16:29:13.505Z,4.00
2019-06-07T16:34:43.822Z,5.90
2019-06-07T16:40:14.843Z,4.53
2019-06-07T16:45:44.953Z,3.67
2019-06-07T16:51:14.251Z,3.50
2019-06-07T16:56:47.264Z,4.50
2019-06-07T17:02:14.560Z,7.20
2019-06-07T17:07:44.801Z,7.80
2019-06-07T17:13:14.853Z,5.73
2019-06-07T17:18:45.310Z,4.37
2019-06-07T17:24:14.558Z,3.80
2019-06-07T17:29:43.852Z,4.07
2019-06-07T17:35:13.404Z,3.87
2019-06-07T17:40:42.830Z,3.77
2019-06-07T17:46:12.131Z,4.70
2019-06-07T17:51:41.765Z,4.47
2019-06-07T17:57:11.100Z,3.60
2019-06-07T18:02:40.466Z,4.60
2019-06-07T18:08:09.730Z,4.83
2019-06-07T18:13:39.070Z,4.00
2019-06-07T18:19:08.446Z,4.97
2019-06-07T18:24:37.730Z,4.43
2019-06-07T18:30:11.767Z,5.20
2019-06-07T18:35:41.316Z,4.67
2019-06-07T18:41:10.600Z,5.30
2019-06-07T18:46:39.915Z,5.73
2019-06-07T18:52:13.562Z,5.80
2019-06-07T18:57:42.928Z,5.87
2019-06-07T19:03:12.234Z,5.23
2019-06-07T19:08:41.520Z,5.30
2019-06-07T19:14:10.793Z,5.40
2019-06-07T19:19:40.090Z,5.97
2019-06-07T19:25:10.106Z,6.13
2019-06-07T19:30:39.406Z,6.07
2019-06-07T19:36:08.751Z,5.33
2019-06-07T19:41:38.053Z,5.47
2019-06-07T19:47:07.331Z,6.60
2019-06-07T19:52:36.754Z,6.67
2019-06-07T19:58:06.107Z,7.10
2019-06-07T20:03:35.382Z,7.43
2019-06-07T20:09:07.037Z,7.77
2019-06-07T20:14:36.439Z,7.50
2019-06-07T20:20:08.898Z,7.87
2019-06-07T20:25:38.306Z,8.10
2019-06-07T20:31:08.267Z,6.70
2019-06-07T20:36:37.709Z,7.10
2019-06-07T20:42:07.819Z,5.63
2019-06-07T20:47:37.145Z,5.53
2019-06-07T20:53:07.386Z,5.00
2019-06-07T20:58:36.659Z,4.83
2019-06-07T21:04:07.202Z,4.80
2019-06-07T21:09:36.588Z,4.63
2019-06-07T21:15:11.901Z,5.00
2019-06-07T21:20:38.701Z,3.80
2019-06-07T21:26:09.040Z,3.20
2019-06-07T21:31:38.419Z,3.40
2019-06-07T21:37:07.911Z,3.03
2019-06-07T21:42:37.257Z,2.63
2019-06-07T21:48:07.510Z,5.27
2019-06-07T21:53:37.613Z,2.43
2019-06-07T21:59:07.123Z,2.03
2019-06-07T22:04:37.250Z,2.10
2019-06-07T22:10:08.054Z,2.40
2019-06-07T22:15:37.648Z,1.87
2019-06-07T22:21:07.044Z,1.40
2019-06-07T22:26:36.325Z,1.50
2019-06-07T22:32:06.699Z,1.43
2019-06-07T22:37:36.026Z,1.30
2019-06-07T22:43:05.434Z,1.50
2019-06-07T22:48:34.702Z,1.33
2019-06-07T22:54:03.973Z,1.50
2019-06-07T22:59:33.274Z,1.20
2019-06-07T23:05:04.782Z,1.27
2019-06-07T23:10:33.653Z,1.40
2019-06-07T23:16:03.155Z,1.40
2019-06-07T23:21:32.424Z,1.30
2019-06-07T23:27:01.707Z,1.20
2019-06-07T23:32:31.069Z,1.23
2019-06-07T23:38:00.330Z,1.20
2019-06-07T23:43:29.601Z,1.30
2019-06-07T23:48:58.888Z,1.33
2019-06-07T23:54:28.203Z,1.20
2019-06-07T23:59:57.483Z,1.80
